sensor_id;sensor_type;location;lat;lon;timestamp;temperature;humidity
8248;DHT22;4164;49.844;8.830;2023-12-20T00:01:29;5.20;99.90
8248;DHT22;4164;49.844;8.830;2023-12-20T00:03:54;5.20;99.90
8248;DHT22;4164;49.844;8.830;2023-12-20T00:06:20;5.20;99.90
8248;DHT22;4164;49.844;8.830;2023-12-20T00:08:45;5.20;99.90
8248;DHT22;4164;49.844;8.830;2023-12-20T00:11:11;5.20;99.90
8248;DHT22;4164;49.844;8.830;2023-12-20T00:13:36;5.10;99.90
8248;DHT22;4164;49.844;8.830;2023-12-20T00:16:02;5.20;99.90
8248;DHT22;4164;49.844;8.830;2023-12-20T00:18:28;5.20;99.90
8248;DHT22;4164;49.844;8.830;2023-12-20T00:20:53;5.20;99.90
8248;DHT22;4164;49.844;8.830;2023-12-20T00:23:19;5.10;99.90
8248;DHT22;4164;49.844;8.830;2023-12-20T00:25:48;5.20;99.90
8248;DHT22;4164;49.844;8.830;2023-12-20T00:28:13;5.10;99.90
8248;DHT22;4164;49.844;8.830;2023-12-20T00:30:39;5.10;99.90
8248;DHT22;4164;49.844;8.830;2023-12-20T00:33:05;5.10;99.90
8248;DHT22;4164;49.844;8.830;2023-12-20T00:35:30;5.10;99.90
8248;DHT22;4164;49.844;8.830;2023-12-20T00:37:56;5.10;99.90
8248;DHT22;4164;49.844;8.830;2023-12-20T00:40:21;5.10;99.90
8248;DHT22;4164;49.844;8.830;2023-12-20T00:42:47;6.00;99.90
8248;DHT22;4164;49.844;8.830;2023-12-20T00:45:13;5.10;99.90
8248;DHT22;4164;49.844;8.830;2023-12-20T00:47:40;5.10;99.90
8248;DHT22;4164;49.844;8.830;2023-12-20T00:50:06;5.10;99.90
8248;DHT22;4164;49.844;8.830;2023-12-20T00:52:31;5.10;99.90
8248;DHT22;4164;49.844;8.830;2023-12-20T00:54:57;5.10;99.90
8248;DHT22;4164;49.844;8.830;2023-12-20T00:57:22;5.10;99.90
8248;DHT22;4164;49.844;8.830;2023-12-20T00:59:48;5.10;99.90
8248;DHT22;4164;49.844;8.830;2023-12-20T01:02:14;5.10;99.90
8248;DHT22;4164;49.844;8.830;2023-12-20T01:04:40;5.10;99.90
8248;DHT22;4164;49.844;8.830;2023-12-20T01:07:05;5.10;99.90
8248;DHT22;4164;49.844;8.830;2023-12-20T01:09:31;5.00;99.90
8248;DHT22;4164;49.844;8.830;2023-12-20T01:11:56;5.10;99.90
8248;DHT22;4164;49.844;8.830;2023-12-20T01:14:22;5.00;99.90
8248;DHT22;4164;49.844;8.830;2023-12-20T01:16:48;5.00;99.90
8248;DHT22;4164;49.844;8.830;2023-12-20T01:19:13;5.00;99.90
8248;DHT22;4164;49.844;8.830;2023-12-20T01:21:40;5.00;99.90
8248;DHT22;4164;49.844;8.830;2023-12-20T01:24:05;4.90;99.90
8248;DHT22;4164;49.844;8.830;2023-12-20T01:26:31;4.90;99.90
8248;DHT22;4164;49.844;8.830;2023-12-20T01:28:57;4.90;99.90
8248;DHT22;4164;49.844;8.830;2023-12-20T01:31:22;4.90;99.90
8248;DHT22;4164;49.844;8.830;2023-12-20T01:33:51;4.90;99.90
8248;DHT22;4164;49.844;8.830;2023-12-20T01:36:16;4.90;99.90
8248;DHT22;4164;49.844;8.830;2023-12-20T01:38:42;4.90;98.00
8248;DHT22;4164;49.844;8.830;2023-12-20T01:41:07;4.90;99.90
8248;DHT22;4164;49.844;8.830;2023-12-20T01:43:33;4.90;99.90
8248;DHT22;4164;49.844;8.830;2023-12-20T01:45:59;4.90;99.90
8248;DHT22;4164;49.844;8.830;2023-12-20T01:48:25;4.90;97.10
8248;DHT22;4164;49.844;8.830;2023-12-20T01:50:53;4.90;99.90
8248;DHT22;4164;49.844;8.830;2023-12-20T01:53:21;4.90;99.90
8248;DHT22;4164;49.844;8.830;2023-12-20T01:55:48;4.90;99.90
8248;DHT22;4164;49.844;8.830;2023-12-20T01:58:15;4.90;99.90
8248;DHT22;4164;49.844;8.830;2023-12-20T02:00:41;4.80;99.90
8248;DHT22;4164;49.844;8.830;2023-12-20T02:03:07;4.90;99.90
8248;DHT22;4164;49.844;8.830;2023-12-20T02:05:34;4.80;99.90
8248;DHT22;4164;49.844;8.830;2023-12-20T02:08:00;4.80;99.90
8248;DHT22;4164;49.844;8.830;2023-12-20T02:10:26;4.80;99.90
8248;DHT22;4164;49.844;8.830;2023-12-20T02:12:52;4.90;99.90
8248;DHT22;4164;49.844;8.830;2023-12-20T02:15:18;4.90;99.90
8248;DHT22;4164;49.844;8.830;2023-12-20T02:17:44;4.80;99.90
8248;DHT22;4164;49.844;8.830;2023-12-20T02:20:10;4.90;99.90
8248;DHT22;4164;49.844;8.830;2023-12-20T02:22:36;4.80;99.90
8248;DHT22;4164;49.844;8.830;2023-12-20T02:25:02;4.90;99.90
8248;DHT22;4164;49.844;8.830;2023-12-20T02:27:28;4.90;99.90
8248;DHT22;4164;49.844;8.830;2023-12-20T02:29:54;4.90;99.90
8248;DHT22;4164;49.844;8.830;2023-12-20T02:32:21;4.90;98.50
8248;DHT22;4164;49.844;8.830;2023-12-20T02:34:47;4.90;99.90
8248;DHT22;4164;49.844;8.830;2023-12-20T02:37:13;4.90;92.70
8248;DHT22;4164;49.844;8.830;2023-12-20T02:39:39;4.90;80.60
8248;DHT22;4164;49.844;8.830;2023-12-20T02:42:04;4.90;99.90
8248;DHT22;4164;49.844;8.830;2023-12-20T02:44:30;4.90;99.90
8248;DHT22;4164;49.844;8.830;2023-12-20T02:46:55;4.90;99.90
8248;DHT22;4164;49.844;8.830;2023-12-20T02:49:28;4.90;99.90
8248;DHT22;4164;49.844;8.830;2023-12-20T02:51:53;4.90;99.90
8248;DHT22;4164;49.844;8.830;2023-12-20T02:54:19;4.90;99.90
8248;DHT22;4164;49.844;8.830;2023-12-20T02:56:44;4.90;99.90
8248;DHT22;4164;49.844;8.830;2023-12-20T02:59:10;4.90;99.90
8248;DHT22;4164;49.844;8.830;2023-12-20T03:01:41;4.90;99.90
8248;DHT22;4164;49.844;8.830;2023-12-20T03:04:07;4.90;99.90
8248;DHT22;4164;49.844;8.830;2023-12-20T03:06:37;4.90;99.90
8248;DHT22;4164;49.844;8.830;2023-12-20T03:09:03;5.00;99.90
8248;DHT22;4164;49.844;8.830;2023-12-20T03:11:29;5.10;99.90
8248;DHT22;4164;49.844;8.830;2023-12-20T03:14:00;5.10;99.90
8248;DHT22;4164;49.844;8.830;2023-12-20T03:16:26;5.10;96.00
8248;DHT22;4164;49.844;8.830;2023-12-20T03:18:52;5.10;91.50
8248;DHT22;4164;49.844;8.830;2023-12-20T03:21:17;5.10;60.40
8248;DHT22;4164;49.844;8.830;2023-12-20T03:23:43;5.10;25.20
8248;DHT22;4164;49.844;8.830;2023-12-20T03:26:12;5.20;22.10
8248;DHT22;4164;49.844;8.830;2023-12-20T03:28:38;5.20;1.00
8248;DHT22;4164;49.844;8.830;2023-12-20T03:31:04;5.20;1.00
8248;DHT22;4164;49.844;8.830;2023-12-20T03:33:29;5.20;1.00
8248;DHT22;4164;49.844;8.830;2023-12-20T03:35:55;5.20;1.00
8248;DHT22;4164;49.844;8.830;2023-12-20T03:38:21;5.20;1.00
8248;DHT22;4164;49.844;8.830;2023-12-20T03:40:49;5.30;1.00
8248;DHT22;4164;49.844;8.830;2023-12-20T03:43:15;5.30;1.00
8248;DHT22;4164;49.844;8.830;2023-12-20T03:45:42;5.30;1.00
8248;DHT22;4164;49.844;8.830;2023-12-20T03:48:07;5.30;1.00
8248;DHT22;4164;49.844;8.830;2023-12-20T03:50:34;5.30;1.00
8248;DHT22;4164;49.844;8.830;2023-12-20T03:52:59;5.30;1.00
8248;DHT22;4164;49.844;8.830;2023-12-20T03:58:47;5.40;1.00
8248;DHT22;4164;49.844;8.830;2023-12-20T04:01:12;5.40;1.00
8248;DHT22;4164;49.844;8.830;2023-12-20T04:03:39;5.40;1.00
8248;DHT22;4164;49.844;8.830;2023-12-20T04:06:05;5.40;1.00
8248;DHT22;4164;49.844;8.830;2023-12-20T04:08:31;5.40;1.00
8248;DHT22;4164;49.844;8.830;2023-12-20T04:10:56;5.50;1.00
8248;DHT22;4164;49.844;8.830;2023-12-20T04:13:22;5.40;1.00
8248;DHT22;4164;49.844;8.830;2023-12-20T04:15:47;5.40;1.00
8248;DHT22;4164;49.844;8.830;2023-12-20T04:18:15;5.40;1.00
8248;DHT22;4164;49.844;8.830;2023-12-20T04:20:41;5.40;1.00
8248;DHT22;4164;49.844;8.830;2023-12-20T04:23:06;5.50;1.00
8248;DHT22;4164;49.844;8.830;2023-12-20T04:25:32;5.40;1.00
8248;DHT22;4164;49.844;8.830;2023-12-20T04:28:00;5.50;1.00
8248;DHT22;4164;49.844;8.830;2023-12-20T04:30:28;5.50;1.00
8248;DHT22;4164;49.844;8.830;2023-12-20T04:32:54;5.50;1.00
8248;DHT22;4164;49.844;8.830;2023-12-20T04:35:19;5.60;1.00
8248;DHT22;4164;49.844;8.830;2023-12-20T04:37:45;5.60;1.00
8248;DHT22;4164;49.844;8.830;2023-12-20T04:40:10;5.60;1.00
8248;DHT22;4164;49.844;8.830;2023-12-20T04:42:36;5.60;1.00
8248;DHT22;4164;49.844;8.830;2023-12-20T04:45:02;5.60;1.00
8248;DHT22;4164;49.844;8.830;2023-12-20T04:47:31;5.60;1.00
8248;DHT22;4164;49.844;8.830;2023-12-20T04:49:56;5.60;1.00
8248;DHT22;4164;49.844;8.830;2023-12-20T04:52:25;5.60;1.00
8248;DHT22;4164;49.844;8.830;2023-12-20T04:54:50;5.60;1.00
8248;DHT22;4164;49.844;8.830;2023-12-20T04:57:16;5.60;1.00
8248;DHT22;4164;49.844;8.830;2023-12-20T04:59:41;5.60;1.00
8248;DHT22;4164;49.844;8.830;2023-12-20T05:02:07;5.70;1.00
8248;DHT22;4164;49.844;8.830;2023-12-20T05:04:32;5.70;1.00
8248;DHT22;4164;49.844;8.830;2023-12-20T05:06:58;5.70;1.00
8248;DHT22;4164;49.844;8.830;2023-12-20T05:09:23;5.60;1.00
8248;DHT22;4164;49.844;8.830;2023-12-20T05:11:52;5.60;1.00
8248;DHT22;4164;49.844;8.830;2023-12-20T05:14:17;5.60;1.00
8248;DHT22;4164;49.844;8.830;2023-12-20T05:16:43;5.70;1.00
8248;DHT22;4164;49.844;8.830;2023-12-20T05:19:09;5.70;1.00
8248;DHT22;4164;49.844;8.830;2023-12-20T05:21:34;5.70;1.00
8248;DHT22;4164;49.844;8.830;2023-12-20T05:24:00;5.60;1.00
8248;DHT22;4164;49.844;8.830;2023-12-20T05:26:31;5.70;1.00
8248;DHT22;4164;49.844;8.830;2023-12-20T05:28:57;6.50;1.00
8248;DHT22;4164;49.844;8.830;2023-12-20T05:31:22;5.50;99.90
8248;DHT22;4164;49.844;8.830;2023-12-20T05:33:48;5.50;99.90
8248;DHT22;4164;49.844;8.830;2023-12-20T05:36:14;5.40;1.00
8248;DHT22;4164;49.844;8.830;2023-12-20T05:38:40;5.30;1.00
8248;DHT22;4164;49.844;8.830;2023-12-20T05:41:06;5.30;1.00
8248;DHT22;4164;49.844;8.830;2023-12-20T05:43:31;5.20;1.00
8248;DHT22;4164;49.844;8.830;2023-12-20T05:45:58;5.20;1.00
8248;DHT22;4164;49.844;8.830;2023-12-20T05:48:23;5.30;1.00
8248;DHT22;4164;49.844;8.830;2023-12-20T05:50:49;5.30;1.00
8248;DHT22;4164;49.844;8.830;2023-12-20T05:53:14;5.40;1.00
8248;DHT22;4164;49.844;8.830;2023-12-20T05:55:40;5.40;1.00
8248;DHT22;4164;49.844;8.830;2023-12-20T05:58:05;5.40;1.00
8248;DHT22;4164;49.844;8.830;2023-12-20T06:00:31;5.40;1.00
8248;DHT22;4164;49.844;8.830;2023-12-20T06:02:56;5.40;99.90
8248;DHT22;4164;49.844;8.830;2023-12-20T06:05:25;5.40;99.90
8248;DHT22;4164;49.844;8.830;2023-12-20T06:07:50;5.40;99.90
8248;DHT22;4164;49.844;8.830;2023-12-20T06:10:18;5.40;99.90
8248;DHT22;4164;49.844;8.830;2023-12-20T06:12:44;5.40;99.90
8248;DHT22;4164;49.844;8.830;2023-12-20T06:15:12;5.30;99.90
8248;DHT22;4164;49.844;8.830;2023-12-20T06:17:38;5.20;1.00
8248;DHT22;4164;49.844;8.830;2023-12-20T06:20:03;5.10;1.00
8248;DHT22;4164;49.844;8.830;2023-12-20T06:22:34;5.10;1.00
8248;DHT22;4164;49.844;8.830;2023-12-20T06:24:59;5.00;1.00
8248;DHT22;4164;49.844;8.830;2023-12-20T06:27:27;4.90;1.00
8248;DHT22;4164;49.844;8.830;2023-12-20T06:29:53;4.90;1.00
8248;DHT22;4164;49.844;8.830;2023-12-20T06:32:19;4.90;1.00
8248;DHT22;4164;49.844;8.830;2023-12-20T06:34:47;4.90;1.00
8248;DHT22;4164;49.844;8.830;2023-12-20T06:37:15;4.90;1.00
8248;DHT22;4164;49.844;8.830;2023-12-20T06:39:44;4.80;99.90
8248;DHT22;4164;49.844;8.830;2023-12-20T06:42:09;4.70;99.90
8248;DHT22;4164;49.844;8.830;2023-12-20T06:44:35;4.70;99.90
8248;DHT22;4164;49.844;8.830;2023-12-20T06:47:04;4.70;99.90
8248;DHT22;4164;49.844;8.830;2023-12-20T06:49:30;4.70;99.90
8248;DHT22;4164;49.844;8.830;2023-12-20T06:51:55;4.70;99.90
8248;DHT22;4164;49.844;8.830;2023-12-20T06:54:21;4.60;99.90
8248;DHT22;4164;49.844;8.830;2023-12-20T06:56:47;4.50;99.90
8248;DHT22;4164;49.844;8.830;2023-12-20T06:59:12;4.40;99.90
8248;DHT22;4164;49.844;8.830;2023-12-20T07:01:38;4.40;99.90
8248;DHT22;4164;49.844;8.830;2023-12-20T07:04:03;4.30;99.90
8248;DHT22;4164;49.844;8.830;2023-12-20T07:06:29;5.20;98.10
8248;DHT22;4164;49.844;8.830;2023-12-20T07:08:54;4.20;94.30
8248;DHT22;4164;49.844;8.830;2023-12-20T07:11:20;4.20;96.00
8248;DHT22;4164;49.844;8.830;2023-12-20T07:13:45;4.20;97.50
8248;DHT22;4164;49.844;8.830;2023-12-20T07:16:11;4.20;94.90
8248;DHT22;4164;49.844;8.830;2023-12-20T07:18:37;4.20;81.00
8248;DHT22;4164;49.844;8.830;2023-12-20T07:21:03;4.10;54.90
8248;DHT22;4164;49.844;8.830;2023-12-20T07:23:28;4.10;47.30
8248;DHT22;4164;49.844;8.830;2023-12-20T07:25:54;4.10;29.60
8248;DHT22;4164;49.844;8.830;2023-12-20T07:28:23;4.10;16.50
8248;DHT22;4164;49.844;8.830;2023-12-20T07:30:49;4.20;21.60
8248;DHT22;4164;49.844;8.830;2023-12-20T07:33:15;4.20;19.90
8248;DHT22;4164;49.844;8.830;2023-12-20T07:35:40;4.10;13.70
8248;DHT22;4164;49.844;8.830;2023-12-20T07:38:06;4.10;8.50
8248;DHT22;4164;49.844;8.830;2023-12-20T07:40:32;4.20;8.10
8248;DHT22;4164;49.844;8.830;2023-12-20T07:43:00;4.10;13.00
8248;DHT22;4164;49.844;8.830;2023-12-20T07:45:26;4.20;16.40
8248;DHT22;4164;49.844;8.830;2023-12-20T07:47:51;4.30;17.90
8248;DHT22;4164;49.844;8.830;2023-12-20T07:50:17;4.40;7.40
8248;DHT22;4164;49.844;8.830;2023-12-20T07:52:43;4.50;5.80
8248;DHT22;4164;49.844;8.830;2023-12-20T07:55:08;4.60;1.00
8248;DHT22;4164;49.844;8.830;2023-12-20T07:57:34;4.60;1.00
8248;DHT22;4164;49.844;8.830;2023-12-20T07:59:59;4.70;1.00
8248;DHT22;4164;49.844;8.830;2023-12-20T08:02:25;4.80;1.00
8248;DHT22;4164;49.844;8.830;2023-12-20T08:04:50;4.90;1.00
8248;DHT22;4164;49.844;8.830;2023-12-20T08:07:19;5.00;1.00
8248;DHT22;4164;49.844;8.830;2023-12-20T08:09:47;5.20;1.00
8248;DHT22;4164;49.844;8.830;2023-12-20T08:12:13;5.20;1.00
8248;DHT22;4164;49.844;8.830;2023-12-20T08:14:39;5.30;1.00
8248;DHT22;4164;49.844;8.830;2023-12-20T08:17:04;5.40;1.00
8248;DHT22;4164;49.844;8.830;2023-12-20T08:19:30;5.40;1.00
8248;DHT22;4164;49.844;8.830;2023-12-20T08:21:55;5.40;1.00
8248;DHT22;4164;49.844;8.830;2023-12-20T08:24:21;5.50;1.00
8248;DHT22;4164;49.844;8.830;2023-12-20T08:26:46;5.60;1.00
8248;DHT22;4164;49.844;8.830;2023-12-20T08:29:18;5.60;1.00
8248;DHT22;4164;49.844;8.830;2023-12-20T08:31:43;5.60;1.00
8248;DHT22;4164;49.844;8.830;2023-12-20T08:34:10;5.60;1.00
8248;DHT22;4164;49.844;8.830;2023-12-20T08:36:40;5.60;1.00
8248;DHT22;4164;49.844;8.830;2023-12-20T08:39:06;5.70;1.00
8248;DHT22;4164;49.844;8.830;2023-12-20T08:41:32;5.70;1.00
8248;DHT22;4164;49.844;8.830;2023-12-20T08:44:01;5.80;1.00
8248;DHT22;4164;49.844;8.830;2023-12-20T08:46:26;6.40;1.00
8248;DHT22;4164;49.844;8.830;2023-12-20T08:48:52;5.80;1.00
8248;DHT22;4164;49.844;8.830;2023-12-20T08:51:18;5.90;1.00
8248;DHT22;4164;49.844;8.830;2023-12-20T08:53:47;5.90;1.00
8248;DHT22;4164;49.844;8.830;2023-12-20T08:56:13;5.80;1.00
8248;DHT22;4164;49.844;8.830;2023-12-20T08:58:38;5.90;1.00
8248;DHT22;4164;49.844;8.830;2023-12-20T09:01:04;6.00;1.00
8248;DHT22;4164;49.844;8.830;2023-12-20T09:03:29;6.00;1.00
8248;DHT22;4164;49.844;8.830;2023-12-20T09:05:58;5.90;1.00
8248;DHT22;4164;49.844;8.830;2023-12-20T09:08:23;6.00;1.00
8248;DHT22;4164;49.844;8.830;2023-12-20T09:10:49;6.10;1.00
8248;DHT22;4164;49.844;8.830;2023-12-20T09:13:15;6.20;1.00
8248;DHT22;4164;49.844;8.830;2023-12-20T09:15:40;6.20;1.00
8248;DHT22;4164;49.844;8.830;2023-12-20T09:18:06;6.20;1.00
8248;DHT22;4164;49.844;8.830;2023-12-20T09:20:31;6.10;1.00
8248;DHT22;4164;49.844;8.830;2023-12-20T09:22:58;6.10;1.00
8248;DHT22;4164;49.844;8.830;2023-12-20T09:25:24;6.10;1.00
8248;DHT22;4164;49.844;8.830;2023-12-20T09:27:49;6.10;1.00
8248;DHT22;4164;49.844;8.830;2023-12-20T09:30:15;6.10;1.00
8248;DHT22;4164;49.844;8.830;2023-12-20T09:32:40;6.10;1.00
8248;DHT22;4164;49.844;8.830;2023-12-20T09:35:06;6.10;1.00
8248;DHT22;4164;49.844;8.830;2023-12-20T09:37:33;6.20;1.00
8248;DHT22;4164;49.844;8.830;2023-12-20T09:39:59;6.20;1.00
8248;DHT22;4164;49.844;8.830;2023-12-20T09:42:34;6.20;1.00
8248;DHT22;4164;49.844;8.830;2023-12-20T09:45:02;6.20;1.00
8248;DHT22;4164;49.844;8.830;2023-12-20T09:47:29;6.50;1.00
8248;DHT22;4164;49.844;8.830;2023-12-20T09:49:55;6.40;1.00
8248;DHT22;4164;49.844;8.830;2023-12-20T09:52:22;6.30;1.00
8248;DHT22;4164;49.844;8.830;2023-12-20T09:54:49;6.20;1.00
8248;DHT22;4164;49.844;8.830;2023-12-20T09:57:16;6.30;1.00
8248;DHT22;4164;49.844;8.830;2023-12-20T09:59:42;6.30;1.00
8248;DHT22;4164;49.844;8.830;2023-12-20T10:02:12;6.30;1.00
8248;DHT22;4164;49.844;8.830;2023-12-20T10:04:42;6.20;1.00
8248;DHT22;4164;49.844;8.830;2023-12-20T10:07:10;6.20;1.00
8248;DHT22;4164;49.844;8.830;2023-12-20T10:09:35;6.20;1.00
8248;DHT22;4164;49.844;8.830;2023-12-20T10:12:01;6.20;1.00
8248;DHT22;4164;49.844;8.830;2023-12-20T10:14:27;6.30;1.00
8248;DHT22;4164;49.844;8.830;2023-12-20T10:16:52;6.40;1.00
8248;DHT22;4164;49.844;8.830;2023-12-20T10:19:19;6.30;1.00
8248;DHT22;4164;49.844;8.830;2023-12-20T10:21:45;6.30;1.00
8248;DHT22;4164;49.844;8.830;2023-12-20T10:24:17;6.30;1.00
8248;DHT22;4164;49.844;8.830;2023-12-20T10:26:43;6.30;1.00
8248;DHT22;4164;49.844;8.830;2023-12-20T10:29:10;6.40;1.00
8248;DHT22;4164;49.844;8.830;2023-12-20T10:31:35;6.40;1.00
8248;DHT22;4164;49.844;8.830;2023-12-20T10:34:02;6.40;1.00
8248;DHT22;4164;49.844;8.830;2023-12-20T10:36:32;6.40;1.00
8248;DHT22;4164;49.844;8.830;2023-12-20T10:38:58;6.50;1.00
8248;DHT22;4164;49.844;8.830;2023-12-20T10:41:30;6.40;1.00
8248;DHT22;4164;49.844;8.830;2023-12-20T10:44:03;6.50;1.00
8248;DHT22;4164;49.844;8.830;2023-12-20T10:46:30;6.40;1.00
8248;DHT22;4164;49.844;8.830;2023-12-20T10:48:57;6.40;1.00
8248;DHT22;4164;49.844;8.830;2023-12-20T10:51:24;6.40;1.00
8248;DHT22;4164;49.844;8.830;2023-12-20T10:53:52;6.40;1.00
8248;DHT22;4164;49.844;8.830;2023-12-20T10:56:19;6.40;1.00
8248;DHT22;4164;49.844;8.830;2023-12-20T10:58:46;6.50;1.00
8248;DHT22;4164;49.844;8.830;2023-12-20T11:01:14;6.40;1.00
8248;DHT22;4164;49.844;8.830;2023-12-20T11:09:29;6.60;1.00
8248;DHT22;4164;49.844;8.830;2023-12-20T11:12:06;6.60;1.00
8248;DHT22;4164;49.844;8.830;2023-12-20T11:14:42;6.60;1.00
8248;DHT22;4164;49.844;8.830;2023-12-20T11:17:11;6.60;1.00
8248;DHT22;4164;49.844;8.830;2023-12-20T11:22:26;6.70;1.00
8248;DHT22;4164;49.844;8.830;2023-12-20T11:24:53;6.70;1.00
8248;DHT22;4164;49.844;8.830;2023-12-20T11:27:19;6.70;1.00
8248;DHT22;4164;49.844;8.830;2023-12-20T11:29:56;6.70;1.00
8248;DHT22;4164;49.844;8.830;2023-12-20T11:35:01;6.70;1.00
8248;DHT22;4164;49.844;8.830;2023-12-20T11:37:48;6.70;1.00
8248;DHT22;4164;49.844;8.830;2023-12-20T11:40:18;6.70;1.00
8248;DHT22;4164;49.844;8.830;2023-12-20T11:42:45;6.70;1.00
8248;DHT22;4164;49.844;8.830;2023-12-20T11:45:14;6.80;1.00
8248;DHT22;4164;49.844;8.830;2023-12-20T11:47:45;6.90;1.00
8248;DHT22;4164;49.844;8.830;2023-12-20T11:50:11;6.90;1.00
8248;DHT22;4164;49.844;8.830;2023-12-20T11:52:36;6.90;1.00
8248;DHT22;4164;49.844;8.830;2023-12-20T11:55:02;7.00;1.00
8248;DHT22;4164;49.844;8.830;2023-12-20T11:57:32;7.00;1.00
8248;DHT22;4164;49.844;8.830;2023-12-20T11:59:58;6.90;1.00
8248;DHT22;4164;49.844;8.830;2023-12-20T12:02:24;6.90;1.00
8248;DHT22;4164;49.844;8.830;2023-12-20T12:04:49;7.00;1.00
8248;DHT22;4164;49.844;8.830;2023-12-20T12:07:16;6.90;1.00
8248;DHT22;4164;49.844;8.830;2023-12-20T12:09:42;6.80;1.00
8248;DHT22;4164;49.844;8.830;2023-12-20T12:12:08;6.80;1.00
8248;DHT22;4164;49.844;8.830;2023-12-20T12:14:34;6.80;1.00
8248;DHT22;4164;49.844;8.830;2023-12-20T12:17:02;6.70;1.00
8248;DHT22;4164;49.844;8.830;2023-12-20T12:19:29;6.60;1.00
8248;DHT22;4164;49.844;8.830;2023-12-20T12:22:05;6.60;1.00
8248;DHT22;4164;49.844;8.830;2023-12-20T12:24:32;6.50;1.00
8248;DHT22;4164;49.844;8.830;2023-12-20T12:26:58;6.50;1.00
8248;DHT22;4164;49.844;8.830;2023-12-20T12:29:24;6.40;1.00
8248;DHT22;4164;49.844;8.830;2023-12-20T12:31:50;6.30;1.00
8248;DHT22;4164;49.844;8.830;2023-12-20T12:34:16;6.30;1.00
8248;DHT22;4164;49.844;8.830;2023-12-20T12:36:43;6.30;1.00
8248;DHT22;4164;49.844;8.830;2023-12-20T12:39:09;6.30;1.00
8248;DHT22;4164;49.844;8.830;2023-12-20T12:41:40;6.30;1.00
8248;DHT22;4164;49.844;8.830;2023-12-20T12:44:05;6.30;1.00
8248;DHT22;4164;49.844;8.830;2023-12-20T12:46:31;6.40;1.00
8248;DHT22;4164;49.844;8.830;2023-12-20T12:48:58;6.60;1.00
8248;DHT22;4164;49.844;8.830;2023-12-20T12:51:23;6.60;1.00
8248;DHT22;4164;49.844;8.830;2023-12-20T12:53:49;6.60;1.00
8248;DHT22;4164;49.844;8.830;2023-12-20T12:56:15;6.90;1.00
8248;DHT22;4164;49.844;8.830;2023-12-20T12:58:41;7.10;1.00
8248;DHT22;4164;49.844;8.830;2023-12-20T13:01:07;7.10;1.00
8248;DHT22;4164;49.844;8.830;2023-12-20T13:03:32;7.20;1.00
8248;DHT22;4164;49.844;8.830;2023-12-20T13:06:02;7.50;1.00
8248;DHT22;4164;49.844;8.830;2023-12-20T13:08:31;7.50;1.00
8248;DHT22;4164;49.844;8.830;2023-12-20T13:10:57;7.30;1.00
8248;DHT22;4164;49.844;8.830;2023-12-20T13:13:29;7.30;1.00
8248;DHT22;4164;49.844;8.830;2023-12-20T13:15:54;7.50;1.00
8248;DHT22;4164;49.844;8.830;2023-12-20T13:18:23;7.80;1.00
8248;DHT22;4164;49.844;8.830;2023-12-20T13:20:49;7.70;1.00
8248;DHT22;4164;49.844;8.830;2023-12-20T13:23:15;7.70;1.00
8248;DHT22;4164;49.844;8.830;2023-12-20T13:25:44;7.40;1.00
8248;DHT22;4164;49.844;8.830;2023-12-20T13:28:13;7.10;1.00
8248;DHT22;4164;49.844;8.830;2023-12-20T13:30:38;7.30;1.00
8248;DHT22;4164;49.844;8.830;2023-12-20T13:33:04;7.40;1.00
8248;DHT22;4164;49.844;8.830;2023-12-20T13:35:30;7.30;1.00
8248;DHT22;4164;49.844;8.830;2023-12-20T13:37:57;7.40;1.00
8248;DHT22;4164;49.844;8.830;2023-12-20T13:40:23;7.60;1.00
8248;DHT22;4164;49.844;8.830;2023-12-20T13:42:48;7.60;1.00
8248;DHT22;4164;49.844;8.830;2023-12-20T13:45:14;7.70;1.00
8248;DHT22;4164;49.844;8.830;2023-12-20T13:47:39;7.60;1.00
8248;DHT22;4164;49.844;8.830;2023-12-20T13:50:05;7.50;1.00
8248;DHT22;4164;49.844;8.830;2023-12-20T13:52:31;7.70;1.00
8248;DHT22;4164;49.844;8.830;2023-12-20T13:54:56;7.50;1.00
8248;DHT22;4164;49.844;8.830;2023-12-20T13:57:22;7.30;1.00
8248;DHT22;4164;49.844;8.830;2023-12-20T13:59:47;7.10;1.00
8248;DHT22;4164;49.844;8.830;2023-12-20T14:02:13;7.00;1.00
8248;DHT22;4164;49.844;8.830;2023-12-20T14:04:39;7.00;1.00
8248;DHT22;4164;49.844;8.830;2023-12-20T14:07:05;7.10;1.00
8248;DHT22;4164;49.844;8.830;2023-12-20T14:09:33;7.00;1.00
8248;DHT22;4164;49.844;8.830;2023-12-20T14:12:02;7.00;1.00
8248;DHT22;4164;49.844;8.830;2023-12-20T14:14:27;6.90;1.00
8248;DHT22;4164;49.844;8.830;2023-12-20T14:16:53;6.80;1.00
8248;DHT22;4164;49.844;8.830;2023-12-20T14:19:19;6.80;1.00
8248;DHT22;4164;49.844;8.830;2023-12-20T14:21:44;6.80;1.00
8248;DHT22;4164;49.844;8.830;2023-12-20T14:24:14;6.70;1.00
8248;DHT22;4164;49.844;8.830;2023-12-20T14:26:41;6.60;1.00
8248;DHT22;4164;49.844;8.830;2023-12-20T14:29:07;6.60;1.00
8248;DHT22;4164;49.844;8.830;2023-12-20T14:31:33;6.60;1.00
8248;DHT22;4164;49.844;8.830;2023-12-20T14:33:58;6.60;1.00
8248;DHT22;4164;49.844;8.830;2023-12-20T14:36:25;6.60;1.00
8248;DHT22;4164;49.844;8.830;2023-12-20T14:38:53;6.50;1.00
8248;DHT22;4164;49.844;8.830;2023-12-20T14:41:18;6.60;1.00
8248;DHT22;4164;49.844;8.830;2023-12-20T14:43:53;6.50;1.00
8248;DHT22;4164;49.844;8.830;2023-12-20T14:46:19;6.50;1.00
8248;DHT22;4164;49.844;8.830;2023-12-20T14:48:44;6.50;1.00
8248;DHT22;4164;49.844;8.830;2023-12-20T14:51:10;6.50;1.00
8248;DHT22;4164;49.844;8.830;2023-12-20T14:53:37;6.50;1.00
8248;DHT22;4164;49.844;8.830;2023-12-20T14:56:06;6.50;1.00
8248;DHT22;4164;49.844;8.830;2023-12-20T14:58:34;6.40;1.00
8248;DHT22;4164;49.844;8.830;2023-12-20T15:01:02;6.40;1.00
8248;DHT22;4164;49.844;8.830;2023-12-20T15:03:27;6.40;1.00
8248;DHT22;4164;49.844;8.830;2023-12-20T15:05:54;6.40;1.00
8248;DHT22;4164;49.844;8.830;2023-12-20T15:08:19;6.30;1.00
8248;DHT22;4164;49.844;8.830;2023-12-20T15:10:46;6.30;1.00
8248;DHT22;4164;49.844;8.830;2023-12-20T15:13:12;6.20;1.00
8248;DHT22;4164;49.844;8.830;2023-12-20T15:15:38;6.20;1.00
8248;DHT22;4164;49.844;8.830;2023-12-20T15:18:03;6.20;1.00
8248;DHT22;4164;49.844;8.830;2023-12-20T15:20:29;6.20;1.00
8248;DHT22;4164;49.844;8.830;2023-12-20T15:22:54;6.30;1.00
8248;DHT22;4164;49.844;8.830;2023-12-20T15:25:20;6.30;1.00
8248;DHT22;4164;49.844;8.830;2023-12-20T15:27:48;6.30;1.00
8248;DHT22;4164;49.844;8.830;2023-12-20T15:30:21;6.30;1.00
8248;DHT22;4164;49.844;8.830;2023-12-20T15:32:47;6.30;1.00
8248;DHT22;4164;49.844;8.830;2023-12-20T15:35:13;6.30;1.00
8248;DHT22;4164;49.844;8.830;2023-12-20T15:37:38;6.30;1.00
8248;DHT22;4164;49.844;8.830;2023-12-20T15:40:07;6.30;1.00
8248;DHT22;4164;49.844;8.830;2023-12-20T15:42:33;6.30;1.00
8248;DHT22;4164;49.844;8.830;2023-12-20T15:45:02;6.30;1.00
8248;DHT22;4164;49.844;8.830;2023-12-20T15:47:27;6.30;1.00
8248;DHT22;4164;49.844;8.830;2023-12-20T15:49:53;6.30;1.00
8248;DHT22;4164;49.844;8.830;2023-12-20T15:52:19;6.30;1.00
8248;DHT22;4164;49.844;8.830;2023-12-20T15:54:44;6.30;1.00
8248;DHT22;4164;49.844;8.830;2023-12-20T15:57:13;6.30;1.00
8248;DHT22;4164;49.844;8.830;2023-12-20T15:59:41;6.30;1.00
8248;DHT22;4164;49.844;8.830;2023-12-20T16:02:09;6.30;1.00
8248;DHT22;4164;49.844;8.830;2023-12-20T16:04:35;6.30;1.00
8248;DHT22;4164;49.844;8.830;2023-12-20T16:07:01;6.30;1.00
8248;DHT22;4164;49.844;8.830;2023-12-20T16:09:27;6.30;1.00
8248;DHT22;4164;49.844;8.830;2023-12-20T16:11:52;6.30;1.00
8248;DHT22;4164;49.844;8.830;2023-12-20T16:14:18;6.30;1.00
8248;DHT22;4164;49.844;8.830;2023-12-20T16:16:45;6.40;1.00
8248;DHT22;4164;49.844;8.830;2023-12-20T16:19:11;6.40;1.00
8248;DHT22;4164;49.844;8.830;2023-12-20T16:21:37;6.40;1.00
8248;DHT22;4164;49.844;8.830;2023-12-20T16:24:02;6.40;1.00
8248;DHT22;4164;49.844;8.830;2023-12-20T16:26:28;6.40;1.00
8248;DHT22;4164;49.844;8.830;2023-12-20T16:28:54;6.40;1.00
8248;DHT22;4164;49.844;8.830;2023-12-20T16:31:19;6.40;1.00
8248;DHT22;4164;49.844;8.830;2023-12-20T16:33:45;6.40;1.00
8248;DHT22;4164;49.844;8.830;2023-12-20T16:36:10;6.40;1.00
8248;DHT22;4164;49.844;8.830;2023-12-20T16:38:36;6.40;1.00